CDT,Max TemperatureF,Mean TemperatureF,Min TemperatureF,Max Dew PointF,MeanDew PointF,Min DewpointF,Max Humidity, Mean Humidity, Min Humidity, Max Sea Level PressureIn, Mean Sea Level PressureIn, Min Sea Level PressureIn, Max VisibilityMiles, Mean VisibilityMiles, Min VisibilityMiles, Max Wind SpeedMPH, Mean Wind SpeedMPH, Max Gust SpeedMPH,PrecipitationIn, CloudCover, Events, WindDirDegrees
2013-9-1,66,60,53,64,57,52,94,84,68,30.05,29.94,29.83,10,10,10,17,10,26,0.00,3,,305
2013-9-2,69,58,46,54,49,45,100,78,46,30.14,30.09,30.05,10,10,10,9,5,,0.00,2,,345
2013-9-3,78,63,48,61,55,46,100,76,44,30.08,30.05,30.01,10,10,5,9,4,,0.00,0,,188
2013-9-4,82,70,59,64,61,57,100,76,48,30.19,30.12,30.03,10,9,0,9,4,,0.00,0,Fog,54
2013-9-5,84,72,60,66,61,55,94,71,50,30.22,30.17,30.08,10,10,1,13,8,17,0.00,1,Thunderstorm,110
2013-9-6,89,76,64,72,66,63,100,72,46,30.08,29.97,29.88,10,10,10,16,7,17,0.00,0,,182
2013-9-7,91,78,66,72,68,64,94,75,43,30.06,29.97,29.90,10,10,7,21,6,25,0.00,0,Rain-Thunderstorm,16
2013-9-8,71,65,59,63,57,54,94,82,64,30.07,30.00,29.89,10,10,7,17,11,25,0.03,5,Rain-Thunderstorm,83
2013-9-9,82,72,62,72,66,59,100,87,70,29.88,29.75,29.67,10,7,0,17,8,21,0.01,4,Fog-Rain-Thunderstorm,176
2013-9-10,80,70,60,66,61,57,100,78,45,30.01,29.92,29.81,10,10,4,18,8,22,0.00,0,,264
2013-9-11,82,70,57,61,54,46,94,64,28,30.15,30.06,30.00,10,10,7,21,9,30,0.00,0,,277
2013-9-12,73,63,53,55,49,45,94,67,36,30.28,30.23,30.15,10,10,10,16,7,22,0.00,1,,342
2013-9-13,71,58,46,48,45,45,93,67,38,30.28,30.20,30.06,10,10,10,13,5,10,0.00,0,,136
2013-9-14,64,57,50,55,51,45,100,86,56,30.06,29.96,29.87,10,9,3,14,8,18,1.15,4,Rain,155
2013-9-15,64,55,46,57,52,45,100,87,67,30.33,30.15,29.90,10,9,3,16,8,20,0.02,5,Rain,21
2013-9-16,66,54,42,48,43,32,100,72,32,30.40,30.32,30.20,10,10,7,13,7,18,0.00,0,,122
2013-9-17,62,55,48,55,52,46,100,89,77,30.20,30.04,29.90,10,9,2,21,11,26,0.00,6,Rain,145
2013-9-18,77,67,57,70,64,55,100,92,73,29.89,29.74,29.65,10,4,0,18,10,24,0.00,5,Fog,133
2013-9-19,73,65,57,70,60,52,100,82,53,29.86,29.75,29.60,10,9,3,22,10,37,0.00,3,Rain-Thunderstorm,276
2013-9-20,57,52,46,54,49,45,100,87,67,29.97,29.91,29.84,10,9,3,22,12,30,0.00,6,Rain,291
2013-9-21,62,52,42,48,44,41,100,79,52,30.02,29.97,29.90,10,10,0,7,4,,0.00,0,Fog,350
2013-9-22,77,60,44,57,50,43,93,72,44,29.92,29.84,29.76,10,10,10,22,12,28,0.00,0,,123
2013-9-23,75,65,55,54,52,48,88,65,41,29.89,29.83,29.80,10,10,10,23,15,31,0.00,0,,141
2013-9-24,73,60,48,54,52,48,100,77,47,29.97,29.93,29.89,10,10,10,12,7,,0.00,0,,138
2013-9-25,73,60,48,55,51,46,100,73,41,29.95,29.90,29.83,10,9,2,20,7,23,0.00,0,,129
2013-9-26,80,68,55,61,56,52,88,69,45,29.86,29.81,29.76,10,10,10,29,14,38,0.00,0,,131
2013-9-27,75,68,60,64,62,57,94,80,69,29.84,29.79,29.74,10,10,7,22,12,29,0.06,2,Rain-Thunderstorm,153
2013-9-28,66,55,44,61,50,43,100,86,59,29.90,29.76,29.61,10,9,5,23,10,32,0.32,4,Rain,261
2013-9-29,75,57,39,48,43,39,100,63,31,29.91,29.83,29.67,10,10,10,22,8,28,0.00,0,,176
2013-9-30,77,64,50,54,48,45,82,58,36,29.67,29.60,29.55,10,10,10,22,12,29,0.00,0,,172